Time;durP1;ratioP1;P1;durP2;ratioP2;P2;SDS_P1;SDS_P2;PMS_P1;PMS_P2;Temp;Humidity;BMP_temperature;BMP_pressure;BME280_temperature;BME280_humidity;BME280_pressure;Samples;Min_cycle;Max_cycle;Signal;HPM_P1;HPM_P2
2021/08/13 00:02:01;;;;;;;2.30;2.10;;;15.90;99.90;;;;;;5097524;28;20028;-73
2021/08/13 00:04:27;;;;;;;3.78;2.53;;;15.90;99.90;;;;;;5097728;28;20035;-73
2021/08/13 00:06:53;;;;;;;3.03;2.20;;;15.80;99.90;;;;;;5097582;28;20150;-73
2021/08/13 00:09:21;;;;;;;2.53;2.33;;;15.80;99.90;;;;;;5097282;28;20400;-73
2021/08/13 00:11:48;;;;;;;2.05;1.88;;;15.80;99.90;;;;;;5097450;28;20028;-73
2021/08/13 00:14:14;;;;;;;3.88;2.33;;;15.70;99.90;;;;;;5097616;28;20069;-73
2021/08/13 00:16:40;;;;;;;2.58;2.25;;;15.60;99.90;;;;;;5096196;28;20028;-73
2021/08/13 00:19:07;;;;;;;3.97;2.13;;;15.60;99.90;;;;;;5096468;28;20027;-73
2021/08/13 00:21:33;;;;;;;2.58;2.28;;;15.50;99.90;;;;;;5097224;28;20460;-73
2021/08/13 00:23:59;;;;;;;2.47;2.28;;;15.50;99.90;;;;;;5075437;28;20048;-73
2021/08/13 00:26:27;;;;;;;4.68;3.22;;;15.40;99.90;;;;;;5095517;28;20020;-73
2021/08/13 00:28:54;;;;;;;2.70;2.50;;;15.40;99.90;;;;;;5097208;28;20020;-73
2021/08/13 00:31:20;;;;;;;3.03;2.38;;;15.40;99.90;;;;;;5096988;28;20020;-73
2021/08/13 00:33:45;;;;;;;3.53;2.70;;;15.40;99.90;;;;;;5097189;28;20031;-73
2021/08/13 00:36:11;;;;;;;5.82;2.50;;;15.40;99.90;;;;;;5096938;28;20048;-73
2021/08/13 00:38:37;;;;;;;4.28;2.00;;;15.40;99.90;;;;;;5096939;28;20043;-73
2021/08/13 00:41:04;;;;;;;3.03;2.40;;;15.30;99.90;;;;;;5096539;28;20028;-73
2021/08/13 00:43:30;;;;;;;2.28;2.08;;;15.40;99.90;;;;;;5096675;28;20024;-73
2021/08/13 00:45:56;;;;;;;3.50;2.17;;;15.30;99.90;;;;;;5096925;28;20034;-73
2021/08/13 00:48:22;;;;;;;2.22;1.95;;;15.20;99.90;;;;;;5096993;28;20024;-73
2021/08/13 00:50:48;;;;;;;2.55;2.33;;;15.20;99.90;;;;;;5095516;28;20077;-73
2021/08/13 00:53:14;;;;;;;1.77;1.67;;;15.20;99.90;;;;;;5096393;28;20385;-73
2021/08/13 00:55:41;;;;;;;1.63;1.52;;;15.20;99.90;;;;;;5096977;28;20050;-73
2021/08/13 00:58:08;;;;;;;1.95;1.80;;;15.10;99.90;;;;;;5097084;28;20027;-73
2021/08/13 01:00:34;;;;;;;2.75;1.80;;;15.00;99.90;;;;;;5096714;28;20020;-73
2021/08/13 01:03:01;;;;;;;1.95;1.85;;;15.10;99.90;;;;;;5109230;28;20744;-73
2021/08/13 01:05:27;;;;;;;2.35;2.15;;;15.00;99.90;;;;;;5117030;28;20024;-73
2021/08/13 01:07:53;;;;;;;1.90;1.80;;;14.90;99.90;;;;;;5116849;28;20066;-73
2021/08/13 01:10:19;;;;;;;2.83;2.30;;;14.80;99.90;;;;;;5116907;28;20470;-73
2021/08/13 01:12:51;;;;;;;5.15;2.08;;;14.90;99.90;;;;;;5117021;28;20050;-73
2021/08/13 01:15:20;;;;;;;1.92;1.73;;;14.90;99.90;;;;;;5116886;28;20077;-73
2021/08/13 01:18:25;;;;;;;2.45;2.25;;;14.90;99.90;;;;;;5116993;28;20068;-73
2021/08/13 01:21:02;;;;;;;3.38;2.17;;;14.80;99.90;;;;;;5117090;28;20016;-73
2021/08/13 01:23:35;;;;;;;2.90;2.45;;;14.80;99.90;;;;;;5116707;28;20023;-73
2021/08/13 01:26:04;;;;;;;4.55;2.15;;;14.80;99.90;;;;;;5115624;28;20019;-73
2021/08/13 01:28:52;;;;;;;2.45;2.08;;;14.70;99.90;;;;;;5096564;28;20103;-73
2021/08/13 01:31:26;;;;;;;2.13;1.88;;;14.70;99.90;;;;;;5096222;28;20023;-73
2021/08/13 01:33:57;;;;;;;2.97;2.00;;;14.60;99.90;;;;;;5096672;28;20028;-73
2021/08/13 01:36:29;;;;;;;1.92;1.75;;;14.70;99.90;;;;;;5096287;28;20048;-74
2021/08/13 01:39:01;;;;;;;2.50;1.80;;;14.60;99.90;;;;;;5096161;28;20028;-73
2021/08/13 01:41:31;;;;;;;2.13;1.95;;;14.60;99.90;;;;;;5096313;28;20492;-73
2021/08/13 01:43:58;;;;;;;2.83;2.03;;;14.60;99.90;;;;;;5096304;28;20418;-73
2021/08/13 01:46:25;;;;;;;2.53;2.30;;;14.50;99.90;;;;;;5096580;28;20016;-73
2021/08/13 01:48:51;;;;;;;3.05;2.75;;;14.50;99.90;;;;;;5096270;28;20086;-73
2021/08/13 01:51:18;;;;;;;4.65;2.30;;;14.50;99.90;;;;;;5096315;28;20024;-73
2021/08/13 01:53:48;;;;;;;2.33;2.13;;;14.40;99.90;;;;;;5097625;28;20028;-73
2021/08/13 01:56:14;;;;;;;2.85;2.13;;;14.40;99.90;;;;;;5100371;28;20020;-73
2021/08/13 01:58:41;;;;;;;2.63;2.42;;;14.40;99.90;;;;;;5100194;28;20028;-73
2021/08/13 02:01:07;;;;;;;3.75;1.75;;;14.40;99.90;;;;;;5100367;28;20028;-73
2021/08/13 02:03:33;;;;;;;2.22;2.10;;;14.40;99.90;;;;;;5098493;28;20073;-73
2021/08/13 02:06:00;;;;;;;4.30;2.90;;;14.30;99.90;;;;;;5098690;28;20492;-73
2021/08/13 02:08:26;;;;;;;3.08;2.75;;;14.30;99.90;;;;;;5099569;28;20419;-73
2021/08/13 02:10:54;;;;;;;2.40;2.10;;;14.20;99.90;;;;;;5100131;28;20066;-74
2021/08/13 02:13:20;;;;;;;5.82;2.75;;;14.30;99.90;;;;;;5099657;28;20410;-73
2021/08/13 02:15:57;;;;;;;3.75;3.22;;;14.20;99.90;;;;;;5098775;28;20034;-74
2021/08/13 02:18:25;;;;;;;3.60;2.80;;;14.40;99.90;;;;;;5099771;28;20396;-73
2021/08/13 02:20:55;;;;;;;2.60;2.40;;;14.20;99.90;;;;;;5099891;28;20024;-73
2021/08/13 02:23:22;;;;;;;2.55;2.35;;;14.30;99.90;;;;;;5099029;28;20392;-73
2021/08/13 02:25:48;;;;;;;2.17;1.98;;;14.30;99.90;;;;;;5099721;28;20111;-74
2021/08/13 02:28:14;;;;;;;6.68;3.30;;;14.40;99.90;;;;;;5099539;28;20024;-73
2021/08/13 02:30:40;;;;;;;8.35;4.00;;;14.20;99.90;;;;;;5099795;28;20020;-73
2021/08/13 02:33:06;;;;;;;4.07;3.53;;;14.20;99.90;;;;;;5099385;28;20035;-73
2021/08/13 02:35:33;;;;;;;6.20;4.13;;;14.30;99.90;;;;;;5099376;28;20048;-74
2021/08/13 02:38:15;;;;;;;5.28;3.28;;;14.30;99.90;;;;;;5099138;28;20024;-73
2021/08/13 02:40:45;;;;;;;7.32;3.80;;;14.10;99.90;;;;;;5099189;28;20028;-73
2021/08/13 02:43:31;;;;;;;3.33;3.03;;;14.30;99.90;;;;;;5097980;28;20044;-73
2021/08/13 02:45:59;;;;;;;7.32;4.57;;;14.30;99.90;;;;;;5099139;28;20021;-73
2021/08/13 02:48:27;;;;;;;5.82;3.85;;;14.20;99.90;;;;;;5099338;28;20031;-74
2021/08/13 02:50:55;;;;;;;5.30;4.03;;;14.20;99.90;;;;;;5099014;28;20016;-73
2021/08/13 02:53:24;;;;;;;3.95;3.55;;;14.10;99.90;;;;;;5098675;28;20077;-73
2021/08/13 02:56:04;;;;;;;4.00;3.47;;;14.20;99.90;;;;;;5099155;28;20506;-73
2021/08/13 02:58:48;;;;;;;5.03;3.85;;;14.20;99.90;;;;;;5098956;28;20460;-73
2021/08/13 03:01:21;;;;;;;6.57;5.07;;;14.30;99.90;;;;;;5098926;28;20426;-73
2021/08/13 03:03:50;;;;;;;7.32;5.20;;;14.30;99.90;;;;;;5098645;28;20115;-73
2021/08/13 03:06:19;;;;;;;8.02;5.60;;;14.50;99.90;;;;;;5097855;28;20028;-73
2021/08/13 03:08:47;;;;;;;7.20;5.60;;;14.50;99.90;;;;;;5098520;28;20028;-73
2021/08/13 03:11:15;;;;;;;12.82;6.68;;;14.60;99.90;;;;;;5098717;28;20023;-73
2021/08/13 03:13:43;;;;;;;8.18;5.72;;;14.50;99.90;;;;;;5098820;28;20031;-73
2021/08/13 03:16:10;;;;;;;9.80;6.10;;;14.60;99.90;;;;;;5098849;28;20032;-73
2021/08/13 03:18:39;;;;;;;12.40;6.40;;;14.50;99.90;;;;;;5098906;28;20112;-73
2021/08/13 03:21:05;;;;;;;7.68;5.93;;;14.70;99.90;;;;;;5098489;28;20083;-73
2021/08/13 03:23:31;;;;;;;6.18;5.45;;;14.70;99.90;;;;;;5098147;28;20142;-73
2021/08/13 03:25:58;;;;;;;11.52;7.00;;;14.70;99.90;;;;;;5098404;28;20055;-73
2021/08/13 03:28:24;;;;;;;12.95;7.22;;;14.70;99.90;;;;;;5098480;28;20115;-73
2021/08/13 03:30:50;;;;;;;6.40;5.25;;;14.90;99.90;;;;;;5098306;28;20048;-73
2021/08/13 03:33:16;;;;;;;10.30;6.10;;;14.90;99.90;;;;;;5098252;28;20024;-73
2021/08/13 03:35:43;;;;;;;11.90;6.00;;;14.90;99.90;;;;;;5098005;28;20043;-73
2021/08/13 03:38:10;;;;;;;9.45;6.28;;;15.00;99.90;;;;;;5098208;28;20502;-73
2021/08/13 03:40:36;;;;;;;9.25;6.85;;;15.10;99.90;;;;;;5098265;28;20031;-73
2021/08/13 03:43:03;;;;;;;11.27;6.65;;;15.10;99.90;;;;;;5098101;28;20028;-73
2021/08/13 03:45:28;;;;;;;7.93;6.70;;;15.00;99.90;;;;;;5097960;28;20023;-73
2021/08/13 03:47:54;;;;;;;7.95;6.63;;;15.10;99.90;;;;;;5098271;28;20025;-73
2021/08/13 03:50:20;;;;;;;8.70;7.25;;;15.20;99.90;;;;;;5096589;28;20039;-73
2021/08/13 03:52:46;;;;;;;11.73;6.75;;;15.20;99.90;;;;;;5097703;28;20036;-73
2021/08/13 03:55:13;;;;;;;14.05;7.78;;;15.40;99.90;;;;;;5097701;28;20038;-73
2021/08/13 03:57:43;;;;;;;18.48;8.05;;;15.40;99.90;;;;;;5098128;28;20017;-73
2021/08/13 04:00:10;;;;;;;11.55;7.72;;;15.40;99.90;;;;;;5097921;28;20028;-73
2021/08/13 04:02:36;;;;;;;9.57;8.40;;;15.40;99.90;;;;;;5098076;28;20016;-73
2021/08/13 04:05:03;;;;;;;14.90;8.40;;;15.50;99.90;;;;;;5097559;28;20656;-73
2021/08/13 04:07:28;;;;;;;10.52;7.65;;;15.50;99.90;;;;;;5097564;28;20016;-73
2021/08/13 04:09:54;;;;;;;17.30;9.55;;;15.60;99.90;;;;;;5097575;28;20026;-73
2021/08/13 04:12:20;;;;;;;8.88;7.50;;;15.50;99.90;;;;;;5097636;28;20020;-73
2021/08/13 04:14:46;;;;;;;15.30;8.35;;;15.60;99.90;;;;;;5097587;28;20480;-73
2021/08/13 04:17:12;;;;;;;11.70;8.13;;;15.60;99.90;;;;;;5097262;28;20095;-73
2021/08/13 04:19:37;;;;;;;9.82;8.23;;;15.50;99.90;;;;;;5097560;28;20085;-73
2021/08/13 04:22:05;;;;;;;9.63;8.02;;;15.60;99.90;;;;;;5096059;28;20047;-73
2021/08/13 04:24:33;;;;;;;10.45;8.40;;;15.60;99.90;;;;;;5096927;28;20016;-73
2021/08/13 04:27:03;;;;;;;9.52;7.72;;;15.70;99.90;;;;;;5097350;28;20019;-73
2021/08/13 04:29:28;;;;;;;8.88;6.88;;;15.80;99.90;;;;;;5097198;28;20024;-73
2021/08/13 04:31:54;;;;;;;9.55;7.55;;;15.70;99.90;;;;;;5097169;28;20095;-73
2021/08/13 04:34:21;;;;;;;7.93;6.85;;;15.80;99.90;;;;;;5097154;28;20023;-73
2021/08/13 04:36:47;;;;;;;9.18;6.47;;;15.90;99.90;;;;;;5097018;28;20039;-73
2021/08/13 04:39:13;;;;;;;7.43;6.57;;;15.90;99.90;;;;;;5095340;28;20031;-73
2021/08/13 04:41:39;;;;;;;8.98;8.07;;;15.90;99.90;;;;;;5097281;28;20054;-73
2021/08/13 04:44:05;;;;;;;9.65;8.20;;;15.90;99.90;;;;;;5095678;28;20024;-73
2021/08/13 04:46:30;;;;;;;9.73;7.47;;;15.90;99.90;;;;;;5097238;28;20515;-73
2021/08/13 04:48:56;;;;;;;8.73;7.30;;;15.90;99.90;;;;;;5096899;28;20380;-73
2021/08/13 04:51:22;;;;;;;8.88;7.35;;;15.90;99.90;;;;;;5095522;28;20024;-73
2021/08/13 04:53:48;;;;;;;10.48;9.02;;;16.00;99.90;;;;;;5095086;28;20028;-73
2021/08/13 04:56:14;;;;;;;11.57;9.07;;;16.00;99.90;;;;;;5097051;28;20024;-73
2021/08/13 04:58:40;;;;;;;11.93;9.23;;;16.10;99.90;;;;;;5097029;28;20039;-73
2021/08/13 05:01:05;;;;;;;9.23;7.53;;;16.00;99.90;;;;;;5096987;28;20027;-73
2021/08/13 05:03:31;;;;;;;7.50;6.70;;;16.10;99.90;;;;;;5095293;28;20043;-73
2021/08/13 05:05:57;;;;;;;10.77;8.32;;;16.00;99.90;;;;;;5096897;28;20412;-73
2021/08/13 05:08:23;;;;;;;9.50;8.52;;;16.00;99.90;;;;;;5096316;28;20016;-73
2021/08/13 05:10:49;;;;;;;11.18;8.20;;;16.10;99.90;;;;;;5096770;28;20384;-73
2021/08/13 05:13:14;;;;;;;13.45;9.32;;;16.10;99.90;;;;;;5096539;28;20062;-73
2021/08/13 05:15:40;;;;;;;9.90;8.43;;;16.10;99.90;;;;;;5096721;28;20024;-73
2021/08/13 05:18:06;;;;;;;13.15;10.02;;;16.20;99.90;;;;;;5096761;28;20480;-73
2021/08/13 05:20:32;;;;;;;8.85;7.93;;;16.20;99.90;;;;;;5096778;28;20028;-73
2021/08/13 05:22:58;;;;;;;12.70;9.55;;;16.20;99.90;;;;;;5096241;28;20034;-73
2021/08/13 05:25:24;;;;;;;9.10;7.47;;;16.20;99.90;;;;;;5096660;28;20102;-73
2021/08/13 05:27:49;;;;;;;11.65;8.60;;;16.30;99.90;;;;;;5096742;28;20063;-73
2021/08/13 05:30:16;;;;;;;11.55;8.90;;;16.20;99.90;;;;;;5100916;28;20066;-73
2021/08/13 05:32:43;;;;;;;12.10;9.02;;;16.30;99.90;;;;;;5100318;28;20024;-73
2021/08/13 05:35:10;;;;;;;11.05;7.47;;;16.20;99.90;;;;;;5100843;28;20129;-73
2021/08/13 05:37:36;;;;;;;10.50;7.68;;;16.30;99.90;;;;;;5099044;28;20028;-73
2021/08/13 05:40:03;;;;;;;11.73;8.40;;;16.30;99.90;;;;;;5100509;28;20388;-72
2021/08/13 05:42:28;;;;;;;11.93;9.18;;;16.40;99.90;;;;;;5100342;28;20053;-73
2021/08/13 05:44:54;;;;;;;11.73;8.63;;;16.40;99.90;;;;;;5100580;28;20406;-73
2021/08/13 05:47:20;;;;;;;8.82;6.47;;;16.30;99.90;;;;;;5099004;28;20491;-73
2021/08/13 05:49:46;;;;;;;12.63;8.77;;;16.40;99.90;;;;;;5099082;28;20020;-72
2021/08/13 05:52:12;;;;;;;11.80;8.98;;;16.40;99.90;;;;;;5100098;28;20081;-73
2021/08/13 05:54:38;;;;;;;14.82;9.13;;;16.40;99.90;;;;;;5100133;28;20024;-73
2021/08/13 05:57:03;;;;;;;11.38;7.85;;;16.50;99.90;;;;;;5100178;28;20407;-73
2021/08/13 05:59:29;;;;;;;10.98;8.88;;;16.50;99.90;;;;;;5100219;28;20035;-73
2021/08/13 06:01:55;;;;;;;10.60;8.20;;;16.60;99.90;;;;;;5099977;28;20028;-73
2021/08/13 06:04:21;;;;;;;7.55;6.32;;;16.60;99.90;;;;;;5100134;28;20020;-73
2021/08/13 06:06:47;;;;;;;7.95;6.97;;;16.50;99.90;;;;;;5099970;28;20061;-73
2021/08/13 06:09:13;;;;;;;9.55;8.10;;;16.60;99.90;;;;;;5099683;28;20024;-73
2021/08/13 06:11:39;;;;;;;9.02;6.38;;;16.70;99.90;;;;;;5099942;28;20020;-73
2021/08/13 06:14:05;;;;;;;11.63;7.55;;;16.70;99.90;;;;;;5100269;28;20419;-73
2021/08/13 06:16:31;;;;;;;9.73;8.45;;;16.70;99.90;;;;;;5099724;28;20054;-73
2021/08/13 06:18:56;;;;;;;8.43;6.93;;;16.70;99.90;;;;;;5099967;28;20035;-73
2021/08/13 06:21:22;;;;;;;8.55;5.95;;;16.60;99.90;;;;;;5099558;28;20035;-73
2021/08/13 06:23:48;;;;;;;7.35;6.07;;;16.70;99.90;;;;;;5099381;28;20498;-73
2021/08/13 06:26:14;;;;;;;9.18;7.03;;;16.90;99.90;;;;;;5099547;28;20031;-73
2021/08/13 06:28:40;;;;;;;9.77;6.03;;;17.00;99.90;;;;;;5099973;28;20020;-73
2021/08/13 06:31:06;;;;;;;7.93;6.47;;;17.00;99.90;;;;;;5099570;28;20024;-73
2021/08/13 06:33:32;;;;;;;6.35;5.72;;;17.00;99.90;;;;;;5099470;28;20070;-73
2021/08/13 06:35:58;;;;;;;10.75;6.78;;;;;;;;;;5097917;28;20060;-73
2021/08/13 06:38:25;;;;;;;7.97;6.70;;;;;;;;;;5099136;28;20032;-73
2021/08/13 06:40:52;;;;;;;6.88;5.75;;;17.40;99.90;;;;;;5097900;28;20144;-73
2021/08/13 06:43:18;;;;;;;5.63;5.07;;;17.40;99.90;;;;;;5099273;28;20081;-73
2021/08/13 06:45:45;;;;;;;5.78;5.28;;;;;;;;;;5099496;28;20023;-73
2021/08/13 06:48:11;;;;;;;7.22;5.97;;;17.40;99.90;;;;;;5099275;28;20391;-73
2021/08/13 06:50:37;;;;;;;10.27;6.90;;;17.40;99.90;;;;;;5099340;28;20036;-73
2021/08/13 06:53:03;;;;;;;7.85;6.55;;;17.50;99.90;;;;;;5097489;28;20032;-73
2021/08/13 06:55:29;;;;;;;8.18;5.38;;;17.30;99.90;;;;;;5098877;28;20078;-73
2021/08/13 06:57:55;;;;;;;5.78;5.15;;;17.40;99.90;;;;;;5099235;28;20153;-73
2021/08/13 07:00:20;;;;;;;4.90;4.40;;;17.20;99.90;;;;;;5098882;28;20392;-73
2021/08/13 07:02:48;;;;;;;6.03;4.25;;;;;;;;;;5098964;28;20032;-73
2021/08/13 07:05:18;;;;;;;6.53;5.60;;;17.50;99.90;;;;;;5098696;28;20051;-73
2021/08/13 07:07:44;;;;;;;4.53;4.13;;;17.60;99.90;;;;;;5098812;28;20113;-73
2021/08/13 07:10:11;;;;;;;4.88;3.90;;;17.70;99.90;;;;;;5098654;28;20024;-73
2021/08/13 07:12:37;;;;;;;4.65;4.20;;;;;;;;;;5098808;28;20522;-73
2021/08/13 07:15:05;;;;;;;4.75;4.22;;;17.90;99.90;;;;;;5098580;28;20028;-73
2021/08/13 07:17:31;;;;;;;6.88;4.88;;;18.00;99.90;;;;;;5098691;28;20031;-73
2021/08/13 07:19:57;;;;;;;7.07;5.75;;;18.00;99.90;;;;;;5098527;28;20020;-73
2021/08/13 07:22:22;;;;;;;7.55;5.35;;;18.00;99.90;;;;;;5098380;28;20056;-73
2021/08/13 07:24:48;;;;;;;6.03;4.28;;;17.90;99.90;;;;;;5098324;28;20023;-73
2021/08/13 07:27:14;;;;;;;5.93;4.45;;;18.00;99.90;;;;;;5098561;28;20030;-73
2021/08/13 07:29:40;;;;;;;5.10;4.15;;;18.00;99.90;;;;;;5098289;28;20107;-73
2021/08/13 07:32:06;;;;;;;4.63;3.53;;;;;;;;;;5098537;28;20365;-73
2021/08/13 07:34:32;;;;;;;6.85;6.15;;;18.20;99.90;;;;;;5098277;28;20399;-72
2021/08/13 07:36:58;;;;;;;7.78;6.55;;;18.10;99.90;;;;;;5098116;28;20119;-73
2021/08/13 07:39:24;;;;;;;8.98;6.85;;;18.10;99.90;;;;;;5097833;28;20476;-73
2021/08/13 07:41:50;;;;;;;10.63;5.90;;;17.70;99.90;;;;;;5098106;28;20012;-73
2021/08/13 07:44:15;;;;;;;5.68;4.97;;;17.90;99.90;;;;;;5098105;28;20415;-73
2021/08/13 07:46:41;;;;;;;5.65;4.50;;;18.10;99.90;;;;;;5098158;28;20020;-73
2021/08/13 07:49:07;;;;;;;6.35;5.75;;;18.30;99.90;;;;;;5098354;28;20388;-73
2021/08/13 07:51:33;;;;;;;7.60;4.95;;;18.70;99.90;;;;;;5097457;28;20054;-73
2021/08/13 07:53:59;;;;;;;4.80;3.38;;;19.00;99.90;;;;;;5097585;28;20510;-73
2021/08/13 07:56:25;;;;;;;3.47;3.17;;;;;;;;;;5098025;28;20028;-73
2021/08/13 07:58:51;;;;;;;4.45;3.25;;;20.10;99.90;;;;;;5097839;28;20028;-73
2021/08/13 08:01:17;;;;;;;4.43;3.42;;;20.70;99.90;;;;;;5097859;28;20026;-73
2021/08/13 08:03:43;;;;;;;4.65;3.10;;;;;;;;;;5096313;28;20032;-73
2021/08/13 08:06:09;;;;;;;7.53;3.50;;;21.60;99.90;;;;;;5097907;28;20051;-73
2021/08/13 08:08:35;;;;;;;4.57;3.67;;;21.10;99.90;;;;;;5097392;28;20028;-73
2021/08/13 08:11:01;;;;;;;6.65;3.67;;;20.90;99.90;;;;;;5097793;28;20484;-73
2021/08/13 08:13:27;;;;;;;3.30;2.83;;;20.60;99.90;;;;;;5096155;28;20434;-73
2021/08/13 08:15:52;;;;;;;5.10;3.03;;;20.70;99.90;;;;;;5097674;28;20024;-73
2021/08/13 08:18:22;;;;;;;4.15;2.80;;;20.90;99.90;;;;;;5096115;28;20028;-73
2021/08/13 08:20:48;;;;;;;3.13;2.58;;;21.20;99.90;;;;;;5097414;28;20027;-73
2021/08/13 08:23:14;;;;;;;4.18;3.50;;;;;;;;;;5096796;28;20081;-74
2021/08/13 08:25:41;;;;;;;3.30;2.75;;;;;;;;;;5097379;28;20395;-73
2021/08/13 08:28:07;;;;;;;3.17;2.58;;;22.20;99.90;;;;;;5097405;28;20020;-73
2021/08/13 08:30:33;;;;;;;3.10;2.33;;;22.40;99.90;;;;;;5097386;28;20069;-73
2021/08/13 08:32:59;;;;;;;3.60;2.55;;;22.70;99.90;;;;;;5096970;28;20032;-73
2021/08/13 08:35:25;;;;;;;2.60;2.38;;;23.90;99.90;;;;;;5097158;28;20044;-73
2021/08/13 08:37:54;;;;;;;3.70;2.63;;;24.40;99.90;;;;;;5096784;28;20048;-73
2021/08/13 08:40:26;;;;;;;4.45;2.28;;;24.80;99.90;;;;;;5097022;28;20456;-73
2021/08/13 08:42:56;;;;;;;2.50;2.30;;;25.40;99.90;;;;;;5096949;28;20373;-73
2021/08/13 08:45:26;;;;;;;4.18;2.53;;;25.60;99.90;;;;;;5097009;28;20012;-73
2021/08/13 08:47:54;;;;;;;3.22;2.50;;;26.20;99.90;;;;;;5095835;28;20028;-73
2021/08/13 08:50:22;;;;;;;4.35;2.25;;;26.40;99.90;;;;;;5097020;28;20016;-72
2021/08/13 08:52:49;;;;;;;2.90;2.35;;;26.30;99.90;;;;;;5096639;28;20027;-73
2021/08/13 08:55:16;;;;;;;2.60;2.05;;;26.70;99.90;;;;;;5096673;28;20016;-73
2021/08/13 08:57:44;;;;;;;5.53;2.10;;;26.70;99.90;;;;;;5096846;28;20056;-72
2021/08/13 09:00:10;;;;;;;2.65;1.67;;;26.70;99.90;;;;;;5096777;28;20115;-72
2021/08/13 09:02:36;;;;;;;3.33;1.85;;;27.00;99.90;;;;;;5096062;28;20021;-72
2021/08/13 09:05:03;;;;;;;1.50;1.40;;;28.00;99.90;;;;;;5096736;28;20012;-72
2021/08/13 09:07:29;;;;;;;2.58;1.92;;;28.60;98.00;;;;;;5096551;28;20101;-72
2021/08/13 09:09:55;;;;;;;1.85;1.30;;;28.90;99.40;;;;;;5096646;28;20024;-72
2021/08/13 09:12:22;;;;;;;2.30;1.85;;;29.00;97.70;;;;;;5096762;28;20418;-72
2021/08/13 09:14:47;;;;;;;2.83;1.58;;;29.00;96.20;;;;;;5096656;28;20032;-72
2021/08/13 09:17:13;;;;;;;1.95;1.77;;;29.00;97.00;;;;;;5096669;28;20027;-72
2021/08/13 09:19:40;;;;;;;2.75;1.55;;;29.40;97.10;;;;;;5096717;28;20059;-72
2021/08/13 09:22:08;;;;;;;2.70;1.63;;;30.40;95.80;;;;;;5096573;28;20103;-72
2021/08/13 09:24:38;;;;;;;2.50;1.80;;;30.80;94.30;;;;;;5096437;28;20020;-72
2021/08/13 09:27:21;;;;;;;2.83;1.75;;;31.00;94.50;;;;;;5096615;28;20031;-72
2021/08/13 09:30:25;;;;;;;3.53;1.70;;;30.80;91.60;;;;;;5096478;28;20043;-72
2021/08/13 09:33:00;;;;;;;4.32;1.75;;;30.50;92.30;;;;;;5046110;28;20025;-72
2021/08/13 09:35:31;;;;;;;2.15;1.77;;;30.80;93.00;;;;;;5034210;28;20054;-72
2021/08/13 09:37:57;;;;;;;2.28;1.50;;;31.00;92.20;;;;;;5071366;28;20109;-72
2021/08/13 09:40:23;;;;;;;2.75;1.85;;;31.00;90.90;;;;;;5096355;28;20107;-72
2021/08/13 09:42:49;;;;;;;2.22;1.70;;;31.10;90.50;;;;;;5096221;28;20423;-72
2021/08/13 09:45:15;;;;;;;2.17;1.52;;;31.00;90.40;;;;;;5096608;28;20052;-72
2021/08/13 09:47:46;;;;;;;2.00;1.73;;;31.00;90.10;;;;;;5096454;28;20032;-72
2021/08/13 09:50:19;;;;;;;3.08;1.90;;;31.30;89.70;;;;;;5096388;28;20020;-72
2021/08/13 09:53:13;;;;;;;3.20;2.40;;;31.50;86.80;;;;;;5096029;28;20036;-72
2021/08/13 09:55:41;;;;;;;2.13;2.00;;;30.80;86.10;;;;;;5095077;28;20028;-72
2021/08/13 09:58:10;;;;;;;2.25;2.05;;;30.30;85.90;;;;;;5096566;28;20030;-72
2021/08/13 10:00:47;;;;;;;3.03;2.10;;;30.20;86.50;;;;;;5096316;28;20035;-72
2021/08/13 10:03:14;;;;;;;1.73;1.45;;;30.60;88.10;;;;;;5096094;28;20020;-72
2021/08/13 10:05:40;;;;;;;2.28;2.08;;;31.20;89.70;;;;;;5096240;28;20027;-72
2021/08/13 10:08:07;;;;;;;4.07;1.88;;;32.20;86.50;;;;;;5095780;28;20059;-72
2021/08/13 10:10:35;;;;;;;2.03;1.52;;;32.40;84.90;;;;;;5094779;28;20111;-72
2021/08/13 10:13:04;;;;;;;2.33;1.63;;;32.50;84.00;;;;;;5095890;28;20042;-72
2021/08/13 10:15:32;;;;;;;2.70;2.33;;;31.90;83.10;;;;;;5097775;28;20028;-72
2021/08/13 10:17:59;;;;;;;1.80;1.65;;;31.00;79.30;;;;;;5099659;28;20066;-72
2021/08/13 10:20:26;;;;;;;3.20;1.90;;;;;;;;;;5099961;28;20035;-72
2021/08/13 10:22:53;;;;;;;3.35;1.73;;;29.60;83.00;;;;;;5099325;28;20024;-72
2021/08/13 10:25:20;;;;;;;5.45;2.20;;;29.60;87.10;;;;;;5099662;28;20024;-72
2021/08/13 10:27:50;;;;;;;4.10;1.98;;;30.00;84.40;;;;;;5099433;28;20353;-72
2021/08/13 10:30:17;;;;;;;2.15;1.80;;;30.40;84.00;;;;;;5099661;28;20054;-72
2021/08/13 10:32:45;;;;;;;4.57;1.98;;;30.80;84.50;;;;;;5099232;28;20035;-72
2021/08/13 10:35:11;;;;;;;2.80;1.63;;;31.50;85.10;;;;;;5099427;28;20123;-72
2021/08/13 10:37:37;;;;;;;2.25;1.75;;;31.40;82.80;;;;;;5099115;28;20067;-72
2021/08/13 10:40:04;;;;;;;1.92;1.63;;;32.20;83.60;;;;;;5099327;28;20028;-72
2021/08/13 10:42:34;;;;;;;2.47;2.03;;;32.90;83.20;;;;;;5099227;28;20077;-72
2021/08/13 10:45:09;;;;;;;2.92;1.75;;;33.60;82.80;;;;;;5099619;28;20028;-72
2021/08/13 10:48:00;;;;;;;1.63;1.52;;;34.10;99.80;;;;;;5099370;28;20016;-72
2021/08/13 10:50:29;;;;;;;3.13;1.95;;;;;;;;;;5099113;28;20028;-72
2021/08/13 10:52:55;;;;;;;1.83;1.58;;;34.60;79.10;;;;;;5098772;28;20032;-72
2021/08/13 10:55:43;;;;;;;1.50;1.30;;;35.00;78.60;;;;;;5097519;28;20027;-72
2021/08/13 10:58:12;;;;;;;2.35;1.92;;;35.30;80.10;;;;;;5099279;28;20476;-72
2021/08/13 11:01:06;;;;;;;3.17;2.33;;;35.20;77.10;;;;;;5099118;28;20545;-72
2021/08/13 11:03:36;;;;;;;2.92;1.95;;;34.50;73.30;;;;;;5098877;28;20039;-72
2021/08/13 11:06:03;;;;;;;2.33;2.03;;;33.70;73.90;;;;;;5098939;28;20046;-71
2021/08/13 11:08:41;;;;;;;2.63;1.77;;;33.00;74.10;;;;;;5098385;28;20031;-72
2021/08/13 11:11:11;;;;;;;3.78;1.63;;;32.90;73.70;;;;;;5098942;28;20535;-71
2021/08/13 11:13:39;;;;;;;1.60;1.30;;;33.40;74.10;;;;;;5098737;28;20434;-72
2021/08/13 11:16:31;;;;;;;3.88;1.90;;;34.00;75.10;;;;;;5098864;28;20016;-72
2021/08/13 11:19:02;;;;;;;3.85;1.67;;;34.10;72.10;;;;;;5098697;28;20020;-72
2021/08/13 11:21:51;;;;;;;2.15;1.70;;;34.60;73.70;;;;;;5098444;28;20098;-72
2021/08/13 11:24:25;;;;;;;2.28;1.48;;;34.50;68.50;;;;;;5098255;28;20032;-72
2021/08/13 11:26:50;;;;;;;3.58;1.75;;;34.10;71.30;;;;;;5097747;28;20349;-72
2021/08/13 11:29:33;;;;;;;1.45;1.27;;;33.90;71.30;;;;;;5098275;28;20024;-72
2021/08/13 11:32:10;;;;;;;2.08;1.50;;;34.20;72.10;;;;;;5098348;28;20064;-72
2021/08/13 11:34:52;;;;;;;2.00;1.70;;;35.00;71.10;;;;;;5098767;28;20020;-72
2021/08/13 11:37:27;;;;;;;2.25;1.38;;;35.60;67.50;;;;;;5098080;28;20442;-72
2021/08/13 11:39:55;;;;;;;2.80;1.50;;;36.00;69.60;;;;;;5098209;28;20523;-72
2021/08/13 11:42:23;;;;;;;2.85;2.05;;;36.40;68.10;;;;;;5098105;28;20088;-72
2021/08/13 11:44:50;;;;;;;1.75;1.65;;;36.20;64.90;;;;;;5098243;28;20024;-72
2021/08/13 11:47:18;;;;;;;2.13;1.60;;;36.30;64.50;;;;;;5098114;28;20080;-72
2021/08/13 11:49:47;;;;;;;1.67;1.58;;;36.50;63.70;;;;;;5096845;28;20066;-72
2021/08/13 11:52:24;;;;;;;2.05;1.83;;;36.30;63.00;;;;;;5097565;28;20072;-72
2021/08/13 11:54:50;;;;;;;1.73;1.40;;;36.50;62.90;;;;;;5097984;28;20116;-72
2021/08/13 11:57:19;;;;;;;3.42;1.75;;;36.70;63.40;;;;;;5097931;28;20146;-72
2021/08/13 11:59:46;;;;;;;4.03;2.00;;;37.10;62.70;;;;;;5097928;28;20024;-72
2021/08/13 12:02:12;;;;;;;1.83;1.50;;;36.40;61.00;;;;;;5097659;28;20508;-72
2021/08/13 12:04:39;;;;;;;3.22;1.42;;;36.40;63.20;;;;;;5098039;28;20020;-72
2021/08/13 12:07:08;;;;;;;1.92;1.70;;;36.60;62.90;;;;;;5097507;28;20027;-72
2021/08/13 12:09:37;;;;;;;1.35;1.20;;;35.80;59.40;;;;;;5097736;28;20024;-72
2021/08/13 12:12:09;;;;;;;1.92;1.70;;;35.70;62.20;;;;;;5097460;28;20024;-71
2021/08/13 12:14:37;;;;;;;2.83;2.00;;;36.50;62.80;;;;;;5097995;28;20111;-72
2021/08/13 12:17:04;;;;;;;2.38;2.05;;;37.00;60.10;;;;;;5097394;28;20052;-72
2021/08/13 12:19:30;;;;;;;1.45;1.33;;;36.40;57.10;;;;;;5097642;28;20157;-72
2021/08/13 12:22:05;;;;;;;2.10;1.67;;;36.50;57.70;;;;;;5097116;28;20222;-72
2021/08/13 12:24:39;;;;;;;1.73;1.58;;;36.90;58.00;;;;;;5097240;28;20032;-71
2021/08/13 12:27:06;;;;;;;;;;;37.10;56.20;;;;;;5098017;28;20020;-72
2021/08/13 12:29:34;;;;;;;1.92;1.63;;;37.30;57.70;;;;;;5097230;28;20391;-72
2021/08/13 12:32:02;;;;;;;1.98;1.58;;;37.60;57.90;;;;;;5097211;28;20032;-72
2021/08/13 12:34:30;;;;;;;1.95;1.45;;;37.50;55.80;;;;;;5097219;28;20020;-72
2021/08/13 12:37:06;;;;;;;2.10;1.50;;;37.20;57.40;;;;;;5096702;28;20389;-72
2021/08/13 12:39:35;;;;;;;2.10;1.35;;;37.30;57.30;;;;;;5096987;28;20024;-72
2021/08/13 12:42:02;;;;;;;1.75;1.48;;;37.50;57.10;;;;;;5097250;28;20024;-72
2021/08/13 12:44:28;;;;;;;1.40;1.20;;;37.60;56.80;;;;;;5097032;28;20518;-72
2021/08/13 12:46:55;;;;;;;1.25;1.15;;;37.70;57.90;;;;;;5097108;28;20020;-72
2021/08/13 12:49:22;;;;;;;1.25;1.15;;;37.90;58.40;;;;;;5096865;28;20559;-72
2021/08/13 12:51:48;;;;;;;3.58;1.35;;;38.00;57.60;;;;;;5096995;28;20499;-72
2021/08/13 12:54:34;;;;;;;1.15;1.05;;;38.00;56.40;;;;;;5096821;28;20051;-72
2021/08/13 12:57:01;;;;;;;1.35;1.25;;;38.00;54.30;;;;;;5096844;28;20407;-72